createdAt,value
2024-01-16T00:02:25.952Z,3.10
2024-01-16T00:04:53.529Z,10.27
2024-01-16T00:07:21.109Z,4.15
2024-01-16T00:09:48.884Z,4.28
2024-01-16T00:12:16.409Z,6.17
2024-01-16T00:14:44.346Z,6.47
2024-01-16T00:17:12.770Z,5.22
2024-01-16T00:19:41.983Z,5.03
2024-01-16T00:22:09.505Z,4.05
2024-01-16T00:24:37.043Z,4.93
2024-01-16T00:27:06.245Z,5.03
2024-01-16T00:29:35.087Z,7.03
2024-01-16T00:32:02.613Z,6.80
2024-01-16T00:34:30.398Z,6.78
2024-01-16T00:36:59.379Z,6.37
2024-01-16T00:39:26.903Z,3.83
2024-01-16T00:41:54.482Z,5.68
2024-01-16T00:44:22.135Z,5.30
2024-01-16T00:46:49.742Z,6.15
2024-01-16T00:49:19.598Z,5.23
2024-01-16T00:51:49.283Z,5.22
2024-01-16T00:54:18.277Z,5.30
2024-01-16T00:56:47.823Z,3.92
2024-01-16T00:59:15.577Z,4.07
2024-01-16T01:01:43.512Z,4.60
2024-01-16T01:04:11.170Z,4.88
2024-01-16T01:06:38.745Z,6.50
2024-01-16T01:09:08.386Z,5.97
2024-01-16T01:11:37.388Z,6.00
2024-01-16T01:14:05.091Z,4.30
2024-01-16T01:16:32.809Z,4.05
2024-01-16T01:19:00.548Z,4.30
2024-01-16T01:21:28.226Z,5.30
2024-01-16T01:23:55.844Z,3.78
2024-01-16T01:26:23.486Z,4.77
2024-01-16T01:28:53.492Z,5.50
2024-01-16T01:31:21.065Z,4.25
2024-01-16T01:33:48.892Z,7.35
2024-01-16T01:36:16.499Z,5.18
2024-01-16T01:38:44.203Z,4.27
2024-01-16T01:41:13.086Z,5.78
2024-01-16T01:43:40.699Z,3.30
2024-01-16T01:46:13.934Z,5.25
2024-01-16T01:48:42.517Z,4.53
2024-01-16T01:51:10.189Z,3.80
2024-01-16T01:53:38.447Z,5.10
2024-01-16T01:56:07.303Z,4.95
2024-01-16T01:58:35.483Z,4.10
2024-01-16T02:01:03.362Z,5.15
2024-01-16T02:03:34.958Z,5.63
2024-01-16T02:06:02.747Z,4.10
2024-01-16T02:08:31.093Z,4.70
2024-01-16T02:10:58.746Z,4.85
2024-01-16T02:13:26.407Z,6.55
2024-01-16T02:15:54.017Z,3.37
2024-01-16T02:18:21.621Z,3.95
2024-01-16T02:20:50.994Z,4.70
2024-01-16T02:23:20.673Z,3.72
2024-01-16T02:25:49.623Z,4.93
2024-01-16T02:28:17.163Z,3.37
2024-01-16T02:30:44.857Z,4.93
2024-01-16T02:33:12.682Z,5.50
2024-01-16T02:35:40.527Z,6.32
2024-01-16T02:38:08.177Z,4.72
2024-01-16T02:40:35.793Z,3.40
2024-01-16T02:43:04.709Z,3.72
2024-01-16T02:45:32.256Z,4.72
2024-01-16T02:48:00.170Z,3.45
2024-01-16T02:50:27.936Z,4.05
2024-01-16T02:52:55.540Z,4.00
2024-01-16T02:55:23.132Z,3.10
2024-01-16T02:57:51.366Z,4.93
2024-01-16T03:00:20.448Z,2.85
2024-01-16T03:02:48.183Z,4.35
2024-01-16T03:05:15.889Z,5.20
2024-01-16T03:07:43.504Z,5.10
2024-01-16T03:10:11.335Z,4.28
2024-01-16T03:12:39.033Z,3.92
2024-01-16T03:15:07.202Z,4.45
2024-01-16T03:17:36.249Z,4.07
2024-01-16T03:20:04.745Z,3.35
2024-01-16T03:22:32.356Z,7.03
2024-01-16T03:24:59.950Z,4.00
2024-01-16T03:27:27.487Z,4.15
2024-01-16T03:29:55.073Z,4.10
2024-01-16T03:32:22.788Z,5.25
2024-01-16T03:34:51.793Z,4.85
2024-01-16T03:37:19.364Z,4.13
2024-01-16T03:39:47.026Z,5.45
2024-01-16T03:42:15.878Z,5.63
2024-01-16T03:44:43.636Z,6.68
2024-01-16T03:47:11.868Z,3.65
2024-01-16T03:49:39.558Z,4.90
2024-01-16T03:52:08.765Z,7.38
2024-01-16T03:54:36.418Z,6.17
2024-01-16T03:57:04.073Z,6.72
2024-01-16T03:59:31.668Z,4.75
2024-01-16T04:01:59.253Z,6.07
2024-01-16T04:04:27.404Z,4.25
2024-01-16T04:06:54.948Z,6.00
2024-01-16T04:09:23.905Z,6.15
2024-01-16T04:11:52.226Z,4.97
2024-01-16T04:14:19.843Z,4.57
2024-01-16T04:16:47.809Z,4.82
2024-01-16T04:19:15.453Z,5.13
2024-01-16T04:21:43.118Z,6.63
2024-01-16T04:24:10.668Z,6.35
2024-01-16T04:26:39.945Z,5.55
2024-01-16T04:29:07.721Z,4.95
2024-01-16T04:31:35.395Z,4.67
2024-01-16T04:34:03.043Z,11.25
2024-01-16T04:36:30.646Z,5.90
2024-01-16T04:39:00.908Z,7.10
2024-01-16T04:41:28.763Z,5.28
2024-01-16T04:43:57.745Z,4.80
2024-01-16T04:46:25.304Z,5.68
2024-01-16T04:48:52.922Z,5.15
2024-01-16T04:51:20.608Z,5.28
2024-01-16T04:53:48.235Z,4.07
2024-01-16T04:56:15.863Z,4.00
2024-01-16T04:58:43.443Z,7.78
2024-01-16T05:01:12.389Z,6.93
2024-01-16T05:03:39.980Z,7.43
2024-01-16T05:06:14.100Z,4.68
2024-01-16T05:08:41.714Z,5.07
2024-01-16T05:11:09.358Z,4.35
2024-01-16T05:13:37.160Z,6.78
2024-01-16T05:16:04.884Z,6.13
2024-01-16T05:18:34.866Z,6.50
2024-01-16T05:21:03.413Z,6.53
2024-01-16T05:23:31.089Z,11.25
2024-01-16T05:25:58.746Z,6.35
2024-01-16T05:28:26.403Z,8.73
2024-01-16T05:30:54.078Z,5.18
2024-01-16T05:33:21.805Z,6.80
2024-01-16T05:35:52.164Z,6.40
2024-01-16T05:38:19.947Z,11.70
2024-01-16T05:40:47.525Z,4.75
2024-01-16T05:43:15.663Z,6.68
2024-01-16T05:45:43.544Z,8.00
2024-01-16T05:48:11.904Z,6.88
2024-01-16T05:50:39.718Z,6.20
2024-01-16T05:53:08.731Z,8.07
2024-01-16T05:55:38.050Z,6.18
2024-01-16T05:58:05.689Z,8.97
2024-01-16T06:00:34.873Z,7.20
2024-01-16T06:03:02.532Z,5.55
2024-01-16T06:05:30.121Z,5.97
2024-01-16T06:07:57.706Z,8.60
2024-01-16T06:10:26.642Z,5.83
2024-01-16T06:12:54.189Z,7.32
2024-01-16T06:15:21.765Z,5.05
2024-01-16T06:17:49.394Z,6.45
2024-01-16T06:20:17.242Z,7.15
2024-01-16T06:22:44.840Z,6.60
2024-01-16T06:25:12.404Z,7.68
2024-01-16T06:27:42.193Z,6.95
2024-01-16T06:30:11.166Z,7.47
2024-01-16T06:32:39.024Z,5.80
2024-01-16T06:35:07.294Z,8.53
2024-01-16T06:37:35.146Z,5.70
2024-01-16T06:40:02.706Z,8.05
2024-01-16T06:42:30.315Z,7.18
2024-01-16T06:44:59.279Z,5.97
2024-01-16T06:47:27.054Z,6.40
2024-01-16T06:49:54.659Z,6.95
2024-01-16T06:52:22.189Z,8.85
2024-01-16T06:54:49.716Z,8.30
2024-01-16T06:57:17.338Z,10.50
2024-01-16T06:59:44.912Z,8.23
2024-01-16T07:02:13.899Z,9.80
2024-01-16T07:04:41.453Z,7.72
2024-01-16T07:07:09.013Z,11.65
2024-01-16T07:09:36.600Z,7.90
2024-01-16T07:12:04.972Z,9.13
2024-01-16T07:14:33.181Z,12.90
2024-01-16T07:17:01.116Z,10.15
2024-01-16T07:19:30.127Z,12.10
2024-01-16T07:21:57.719Z,11.60
2024-01-16T07:24:25.662Z,9.93
2024-01-16T07:26:55.372Z,11.35
2024-01-16T07:29:22.956Z,8.45
2024-01-16T07:31:50.517Z,9.05
2024-01-16T07:34:22.357Z,13.07
2024-01-16T07:36:51.462Z,9.47
2024-01-16T07:39:19.106Z,9.55
2024-01-16T07:41:46.723Z,8.45
2024-01-16T07:44:14.287Z,10.20
2024-01-16T07:46:41.834Z,12.05
2024-01-16T07:49:09.435Z,11.90
2024-01-16T07:51:36.998Z,7.80
2024-01-16T07:54:09.913Z,7.05
2024-01-16T07:56:38.891Z,10.90
2024-01-16T07:59:06.549Z,9.40
2024-01-16T08:01:34.547Z,7.47
2024-01-16T08:04:02.152Z,11.00
2024-01-16T08:06:29.919Z,10.35
2024-01-16T08:08:57.776Z,9.57
2024-01-16T08:11:26.812Z,8.55
2024-01-16T08:13:54.406Z,10.50
2024-01-16T08:16:22.024Z,13.90
2024-01-16T08:18:49.831Z,12.73
2024-01-16T08:21:17.450Z,11.48
2024-01-16T08:23:45.089Z,15.18
2024-01-16T08:26:12.669Z,12.23
2024-01-16T08:28:41.611Z,10.73
2024-01-16T08:31:09.298Z,11.23
2024-01-16T08:33:43.256Z,9.13
2024-01-16T08:36:14.475Z,10.80
2024-01-16T08:38:42.193Z,10.53
2024-01-16T08:41:10.203Z,11.82
2024-01-16T08:43:37.947Z,10.60
2024-01-16T08:46:07.975Z,11.27
2024-01-16T08:48:35.907Z,11.15
2024-01-16T08:51:03.604Z,11.10
2024-01-16T08:53:32.206Z,11.88
2024-01-16T08:56:00.049Z,11.30
2024-01-16T08:58:27.959Z,10.88
2024-01-16T09:00:55.597Z,10.07
2024-01-16T09:03:24.623Z,11.17
2024-01-16T09:05:52.354Z,12.80
2024-01-16T09:08:20.054Z,11.80
2024-01-16T09:10:47.627Z,12.32
2024-01-16T09:13:15.219Z,12.13
2024-01-16T09:15:42.879Z,11.57
2024-01-16T09:18:10.659Z,10.43
2024-01-16T09:20:39.755Z,14.20
2024-01-16T09:23:07.311Z,14.52
2024-01-16T09:25:34.921Z,13.35
2024-01-16T09:28:02.553Z,13.70
2024-01-16T09:30:30.177Z,14.40
2024-01-16T09:32:57.865Z,11.77
2024-01-16T09:35:25.583Z,16.60
2024-01-16T09:37:54.946Z,15.82
2024-01-16T09:40:22.781Z,14.53
2024-01-16T09:42:50.361Z,13.50
2024-01-16T09:45:21.338Z,15.07
2024-01-16T09:47:51.752Z,14.52
2024-01-16T09:50:20.420Z,19.42
2024-01-16T09:52:48.424Z,16.97
2024-01-16T09:55:17.536Z,14.35
2024-01-16T09:57:47.265Z,16.60
2024-01-16T10:00:15.320Z,17.17
2024-01-16T10:02:43.801Z,14.18
2024-01-16T10:05:12.553Z,17.60
2024-01-16T10:07:40.960Z,18.25
2024-01-16T10:10:11.950Z,19.95
2024-01-16T10:12:41.294Z,13.70
2024-01-16T10:15:11.951Z,15.25
2024-01-16T10:17:43.518Z,14.77
2024-01-16T10:20:15.222Z,16.88
2024-01-16T10:22:45.456Z,15.32
2024-01-16T10:25:18.406Z,13.48
2024-01-16T10:27:50.072Z,12.10
2024-01-16T10:30:23.911Z,9.00
2024-01-16T10:32:51.666Z,10.70
2024-01-16T10:35:22.509Z,15.82
2024-01-16T10:37:51.166Z,7.25
2024-01-16T10:40:24.362Z,8.60
2024-01-16T10:43:01.324Z,10.60
2024-01-16T10:45:29.490Z,9.75
2024-01-16T10:48:05.984Z,10.70
2024-01-16T10:50:34.273Z,8.65
2024-01-16T10:53:09.249Z,9.70
2024-01-16T10:55:42.238Z,9.13
2024-01-16T10:58:13.869Z,11.05
2024-01-16T11:00:41.726Z,9.57
2024-01-16T11:03:14.531Z,8.02
2024-01-16T11:05:42.275Z,7.05
2024-01-16T11:08:12.307Z,6.83
2024-01-16T11:10:40.066Z,9.75
2024-01-16T11:13:08.360Z,7.00
2024-01-16T11:15:42.510Z,19.00
2024-01-16T11:18:13.667Z,8.30
2024-01-16T11:21:01.743Z,8.63
2024-01-16T11:23:34.163Z,8.80
2024-01-16T11:26:24.377Z,7.88
2024-01-16T11:28:55.055Z,5.90
2024-01-16T11:31:35.843Z,6.72
2024-01-16T11:34:04.845Z,8.50
2024-01-16T11:36:47.841Z,9.07
2024-01-16T11:39:21.393Z,6.38
2024-01-16T11:41:56.021Z,6.20
2024-01-16T11:44:40.473Z,6.88
2024-01-16T11:47:09.994Z,18.27
2024-01-16T11:49:42.421Z,8.55
2024-01-16T11:55:32.949Z,10.80
2024-01-16T11:58:27.181Z,10.40
2024-01-16T12:00:55.436Z,8.02
2024-01-16T12:03:33.926Z,9.30
2024-01-16T12:06:06.950Z,10.80
2024-01-16T12:08:34.784Z,13.40
2024-01-16T12:11:02.380Z,11.70
2024-01-16T12:13:32.837Z,9.17
2024-01-16T12:16:05.096Z,10.35
2024-01-16T12:18:41.333Z,9.60
2024-01-16T12:21:13.116Z,16.23
2024-01-16T12:23:47.005Z,18.50
2024-01-16T12:26:22.271Z,9.57
2024-01-16T12:28:52.687Z,12.80
2024-01-16T12:31:20.679Z,11.73
2024-01-16T12:33:57.916Z,18.65
2024-01-16T12:36:29.564Z,13.77
2024-01-16T12:38:57.941Z,15.57
2024-01-16T12:41:32.559Z,12.35
2024-01-16T12:44:14.826Z,14.82
2024-01-16T12:46:44.273Z,14.30
2024-01-16T12:49:13.574Z,16.77
2024-01-16T12:51:41.338Z,10.63
2024-01-16T12:54:12.644Z,13.15
2024-01-16T12:56:40.380Z,11.43
2024-01-16T12:59:11.653Z,13.52
2024-01-16T13:01:42.831Z,11.90
2024-01-16T13:04:10.407Z,13.17
2024-01-16T13:06:40.268Z,12.82
2024-01-16T13:09:11.918Z,10.25
2024-01-16T13:11:50.569Z,15.98
2024-01-16T13:14:18.221Z,28.95
2024-01-16T13:16:45.940Z,12.07
2024-01-16T13:19:13.529Z,11.63
2024-01-16T13:21:42.424Z,25.33
2024-01-16T13:24:09.979Z,24.88
2024-01-16T13:26:38.589Z,21.35
2024-01-16T13:29:07.137Z,38.23
2024-01-16T13:31:35.009Z,22.48
2024-01-16T13:34:02.876Z,23.30
2024-01-16T13:36:45.854Z,14.00
2024-01-16T13:39:19.769Z,49.83
2024-01-16T13:41:48.460Z,9.90
2024-01-16T13:44:16.278Z,16.30
2024-01-16T13:46:57.058Z,33.33
2024-01-16T13:49:29.501Z,22.23
2024-01-16T13:51:57.158Z,13.18
2024-01-16T13:54:27.460Z,8.97
2024-01-16T13:57:03.249Z,10.40
2024-01-16T13:59:35.224Z,10.93
2024-01-16T14:02:03.833Z,7.90
2024-01-16T14:04:31.453Z,12.02
2024-01-16T14:07:11.063Z,7.97
2024-01-16T14:09:44.428Z,12.18
2024-01-16T14:12:13.378Z,7.85
2024-01-16T14:14:42.458Z,8.35
2024-01-16T14:17:10.619Z,8.05
2024-01-16T14:19:39.184Z,6.70
2024-01-16T14:22:07.967Z,12.38
2024-01-16T14:24:35.591Z,7.32
2024-01-16T14:27:05.479Z,9.68
2024-01-16T14:29:35.588Z,6.95
2024-01-16T14:32:03.561Z,9.03
2024-01-16T14:34:31.187Z,5.78
2024-01-16T14:36:58.793Z,8.10
2024-01-16T14:39:27.636Z,13.52
2024-01-16T14:41:55.936Z,19.45
2024-01-16T14:44:25.232Z,13.77
2024-01-16T14:46:55.348Z,6.80
2024-01-16T14:49:23.296Z,13.18
2024-01-16T14:51:51.541Z,6.15
2024-01-16T14:54:19.322Z,13.75
2024-01-16T14:56:47.009Z,11.93
2024-01-16T14:59:16.312Z,17.63
2024-01-16T15:01:46.468Z,8.57
2024-01-16T15:04:14.247Z,9.00
2024-01-16T15:06:42.341Z,12.20
2024-01-16T15:09:11.721Z,4.93
2024-01-16T15:11:39.549Z,6.85
2024-01-16T15:14:07.918Z,6.88
2024-01-16T15:16:35.539Z,7.63
2024-01-16T15:19:04.689Z,6.63
2024-01-16T15:21:32.764Z,6.67
2024-01-16T15:24:00.469Z,8.10
2024-01-16T15:26:28.127Z,10.52
2024-01-16T15:28:55.788Z,8.13
2024-01-16T15:31:23.458Z,7.75
2024-01-16T15:33:51.209Z,9.23
2024-01-16T15:36:20.266Z,9.23
2024-01-16T15:38:48.026Z,8.00
2024-01-16T15:41:15.891Z,8.23
2024-01-16T15:43:43.463Z,5.93
2024-01-16T15:46:11.324Z,7.20
2024-01-16T15:48:39.485Z,6.55
2024-01-16T15:51:10.635Z,7.72
2024-01-16T15:53:40.166Z,6.30
2024-01-16T15:56:07.762Z,5.85
2024-01-16T15:58:35.575Z,5.60
2024-01-16T16:01:03.359Z,9.45
2024-01-16T16:03:31.823Z,7.75
2024-01-16T16:05:59.891Z,6.82
2024-01-16T16:08:27.949Z,8.32
2024-01-16T16:10:57.955Z,6.60
2024-01-16T16:13:25.681Z,5.80
2024-01-16T16:15:53.290Z,7.97
2024-01-16T16:18:20.968Z,9.75
2024-01-16T16:20:48.615Z,5.38
2024-01-16T16:23:16.226Z,12.70
2024-01-16T16:25:46.991Z,6.63
2024-01-16T16:28:15.975Z,7.53
2024-01-16T16:30:44.548Z,9.10
2024-01-16T16:33:13.036Z,6.90
2024-01-16T16:35:40.769Z,8.73
2024-01-16T16:38:10.208Z,10.05
2024-01-16T16:40:39.230Z,11.88
2024-01-16T16:43:06.783Z,7.15
2024-01-16T16:45:42.890Z,7.50
2024-01-16T16:48:13.996Z,7.03
2024-01-16T16:50:41.676Z,7.18
2024-01-16T16:53:10.076Z,7.63
2024-01-16T16:55:37.650Z,6.28
2024-01-16T16:58:09.202Z,5.60
2024-01-16T17:00:39.959Z,7.67
2024-01-16T17:03:08.925Z,7.90
2024-01-16T17:05:36.682Z,8.13
2024-01-16T17:08:05.146Z,6.18
2024-01-16T17:10:32.974Z,6.82
2024-01-16T17:13:00.519Z,6.40
2024-01-16T17:15:28.324Z,8.82
2024-01-16T17:17:57.304Z,9.18
2024-01-16T17:20:25.765Z,17.92
2024-01-16T17:22:53.485Z,22.27
2024-01-16T17:25:21.026Z,8.17
2024-01-16T17:27:50.498Z,7.07
2024-01-16T17:30:18.095Z,6.30
2024-01-16T17:32:45.762Z,5.38
2024-01-16T17:35:15.296Z,5.45
2024-01-16T17:37:42.873Z,5.50
2024-01-16T17:40:13.509Z,5.72
2024-01-16T17:42:41.220Z,5.70
2024-01-16T17:45:10.356Z,7.00
2024-01-16T17:47:38.052Z,4.63
2024-01-16T17:50:07.675Z,5.20
2024-01-16T17:52:36.753Z,5.97
2024-01-16T17:55:04.382Z,4.60
2024-01-16T17:57:31.958Z,4.32
2024-01-16T17:59:59.544Z,3.88
2024-01-16T18:02:28.220Z,5.10
2024-01-16T18:04:55.805Z,3.33
2024-01-16T18:07:23.371Z,4.45
2024-01-16T18:09:52.292Z,5.07
2024-01-16T18:12:19.904Z,10.18
2024-01-16T18:14:47.514Z,10.97
2024-01-16T18:17:15.120Z,5.05
2024-01-16T18:19:43.613Z,5.78
2024-01-16T18:22:11.860Z,4.60
2024-01-16T18:24:39.842Z,4.90
2024-01-16T18:27:08.929Z,4.23
2024-01-16T18:29:38.264Z,3.88
2024-01-16T18:32:08.022Z,3.60
2024-01-16T18:34:38.201Z,3.05
2024-01-16T18:37:07.591Z,4.65
2024-01-16T18:39:35.602Z,5.43
2024-01-16T18:42:03.852Z,3.92
2024-01-16T18:44:32.875Z,5.18
2024-01-16T18:47:00.542Z,6.75
2024-01-16T18:49:28.381Z,6.78
2024-01-16T18:51:57.065Z,4.80
2024-01-16T18:54:25.861Z,3.20
2024-01-16T18:56:53.513Z,4.05
2024-01-16T18:59:22.891Z,4.22
2024-01-16T19:01:52.436Z,4.90
2024-01-16T19:04:21.504Z,2.40
2024-01-16T19:06:49.365Z,3.35
2024-01-16T19:09:19.866Z,3.63
2024-01-16T19:11:49.664Z,4.28
2024-01-16T19:14:17.913Z,4.10
2024-01-16T19:16:47.330Z,4.70
2024-01-16T19:19:16.799Z,4.60
2024-01-16T19:21:47.476Z,4.47
2024-01-16T19:24:16.974Z,4.95
2024-01-16T19:26:45.334Z,4.97
2024-01-16T19:29:12.949Z,6.87
2024-01-16T19:31:40.563Z,3.65
2024-01-16T19:34:08.779Z,4.05
2024-01-16T19:36:41.076Z,4.85
2024-01-16T19:39:15.372Z,4.60
2024-01-16T19:41:44.009Z,3.47
2024-01-16T19:44:12.151Z,5.47
2024-01-16T19:46:41.513Z,6.30
2024-01-16T19:49:09.672Z,5.95
2024-01-16T19:51:41.487Z,4.63
2024-01-16T19:54:09.792Z,4.70
2024-01-16T19:56:39.218Z,6.22
2024-01-16T19:59:08.603Z,5.40
2024-01-16T20:01:36.402Z,6.38
2024-01-16T20:04:06.675Z,4.72
2024-01-16T20:06:34.514Z,8.23
2024-01-16T20:09:05.569Z,6.78
2024-01-16T20:11:34.564Z,5.82
2024-01-16T20:14:02.888Z,6.20
2024-01-16T20:16:32.035Z,7.40
2024-01-16T20:19:01.751Z,11.63
2024-01-16T20:21:29.426Z,7.07
2024-01-16T20:23:57.080Z,6.68
2024-01-16T20:26:26.947Z,14.23
2024-01-16T20:28:54.694Z,10.70
2024-01-16T20:31:22.411Z,11.07
2024-01-16T20:33:50.882Z,17.00
2024-01-16T20:36:18.801Z,11.73
2024-01-16T20:38:48.544Z,10.00
2024-01-16T20:41:17.213Z,10.15
2024-01-16T20:43:46.173Z,5.60
2024-01-16T20:46:15.583Z,6.45
2024-01-16T20:48:43.556Z,8.25
2024-01-16T20:51:14.903Z,7.72
2024-01-16T20:53:44.993Z,7.55
2024-01-16T20:56:12.652Z,6.40
2024-01-16T20:58:40.291Z,5.22
2024-01-16T21:01:09.546Z,4.05
2024-01-16T21:03:37.241Z,6.90
2024-01-16T21:06:07.461Z,9.40
2024-01-16T21:08:38.132Z,7.40
2024-01-16T21:11:05.974Z,8.32
2024-01-16T21:13:33.542Z,6.38
2024-01-16T21:16:02.904Z,8.07
2024-01-16T21:18:32.994Z,6.45
2024-01-16T21:21:01.015Z,10.97
2024-01-16T21:23:28.639Z,6.60
2024-01-16T21:25:56.661Z,8.27
2024-01-16T21:28:24.411Z,6.78
2024-01-16T21:30:52.797Z,7.32
2024-01-16T21:33:20.552Z,7.33
2024-01-16T21:35:49.566Z,5.07
2024-01-16T21:38:17.670Z,5.78
2024-01-16T21:40:45.368Z,8.10
2024-01-16T21:43:14.194Z,12.13
2024-01-16T21:45:42.342Z,11.67
2024-01-16T21:48:10.938Z,12.82
2024-01-16T21:50:39.893Z,14.55
2024-01-16T21:53:08.936Z,20.52
2024-01-16T21:55:36.609Z,19.08
2024-01-16T21:58:04.284Z,16.87
2024-01-16T22:00:32.558Z,18.50
2024-01-16T22:03:00.472Z,15.43
2024-01-16T22:05:28.492Z,11.95
2024-01-16T22:07:56.083Z,11.65
2024-01-16T22:10:25.436Z,8.07
2024-01-16T22:12:53.089Z,7.85
2024-01-16T22:15:20.789Z,13.70
2024-01-16T22:17:48.665Z,7.63
2024-01-16T22:20:17.529Z,7.28
2024-01-16T22:22:45.198Z,6.87
2024-01-16T22:25:12.871Z,10.30
2024-01-16T22:27:41.826Z,7.60
2024-01-16T22:30:10.956Z,8.13
2024-01-16T22:32:39.091Z,7.65
2024-01-16T22:35:07.291Z,8.93
2024-01-16T22:37:34.827Z,12.55
2024-01-16T22:40:02.422Z,8.90
2024-01-16T22:42:31.108Z,6.80
2024-01-16T22:45:00.080Z,8.75
2024-01-16T22:47:27.811Z,7.67
2024-01-16T22:49:55.445Z,7.95
2024-01-16T22:52:23.618Z,8.18
2024-01-16T22:54:51.192Z,9.27
2024-01-16T22:57:18.919Z,11.85
2024-01-16T22:59:46.521Z,9.77
2024-01-16T23:02:15.453Z,11.32
2024-01-16T23:04:43.112Z,10.73
2024-01-16T23:07:10.778Z,10.00
2024-01-16T23:09:38.778Z,10.68
2024-01-16T23:12:07.845Z,11.73
2024-01-16T23:14:35.553Z,8.73
2024-01-16T23:17:03.315Z,11.68
2024-01-16T23:19:32.388Z,10.23
2024-01-16T23:22:00.056Z,7.95
2024-01-16T23:24:29.064Z,11.70
2024-01-16T23:26:56.674Z,11.43
2024-01-16T23:29:24.286Z,12.00
2024-01-16T23:31:51.980Z,9.07
2024-01-16T23:34:19.568Z,13.32
2024-01-16T23:36:48.512Z,10.17
2024-01-16T23:39:16.612Z,9.43
2024-01-16T23:41:46.058Z,9.52
2024-01-16T23:44:13.795Z,11.45
2024-01-16T23:46:41.460Z,9.55
2024-01-16T23:49:09.009Z,11.33
2024-01-16T23:51:36.846Z,10.70
2024-01-16T23:54:06.462Z,12.88
2024-01-16T23:56:34.115Z,10.48
2024-01-16T23:59:01.758Z,13.55
